Time;durP1;ratioP1;P1;durP2;ratioP2;P2;SDS_P1;SDS_P2;PMS_P1;PMS_P2;Temp;Humidity;BMP_temperature;BMP_pressure;BME280_temperature;BME280_humidity;BME280_pressure;Samples;Min_cycle;Max_cycle;Signal;HPM_P1;HPM_P2
2021/11/30 00:01:27;;;;;;;18.63;13.48;;;4.10;99.90;;;;;;5056403;28;20017;-93
2021/11/30 00:03:54;;;;;;;20.88;14.43;;;4.10;99.90;;;;;;5056324;28;20094;-93
2021/11/30 00:06:21;;;;;;;19.02;14.73;;;4.10;99.90;;;;;;5038441;28;20059;-92
2021/11/30 00:08:48;;;;;;;17.88;13.38;;;4.10;99.90;;;;;;5050181;28;20031;-93
2021/11/30 00:11:15;;;;;;;17.15;12.85;;;4.10;99.90;;;;;;5076148;28;20028;-92
2021/11/30 00:13:42;;;;;;;17.80;12.35;;;4.10;99.90;;;;;;5058495;28;20024;-92
2021/11/30 00:16:10;;;;;;;16.50;12.50;;;4.10;99.90;;;;;;5058222;28;20032;-92
2021/11/30 00:18:36;;;;;;;16.58;12.00;;;4.10;99.90;;;;;;5058456;28;20059;-92
2021/11/30 00:21:10;;;;;;;15.23;11.40;;;4.10;99.90;;;;;;5057622;28;20064;-91
2021/11/30 00:23:37;;;;;;;12.95;11.05;;;4.00;99.90;;;;;;5058598;28;20078;-89
2021/11/30 00:26:04;;;;;;;13.50;10.48;;;4.00;99.90;;;;;;5058428;28;20055;-90
2021/11/30 00:28:30;;;;;;;13.90;11.52;;;4.00;99.90;;;;;;5050021;28;20079;-89
2021/11/30 00:30:58;;;;;;;13.35;10.60;;;3.90;99.90;;;;;;5041631;28;20021;-91
2021/11/30 00:33:24;;;;;;;13.43;10.35;;;4.00;99.90;;;;;;5058058;28;20024;-90
2021/11/30 00:35:52;;;;;;;13.98;10.25;;;4.00;99.90;;;;;;5041280;28;20040;-89
2021/11/30 00:38:18;;;;;;;13.43;10.13;;;4.00;99.90;;;;;;5057975;28;20024;-88
2021/11/30 00:40:46;;;;;;;12.75;10.23;;;3.90;99.90;;;;;;5058234;28;20032;-91
2021/11/30 00:43:21;;;;;;;13.40;10.48;;;3.90;99.90;;;;;;5040890;28;20032;-89
2021/11/30 00:46:33;;;;;;;14.95;10.20;;;3.90;99.90;;;;;;5058436;28;20052;-89
2021/11/30 00:48:37;;;;;;;15.05;9.77;;;3.90;99.90;;;;;;5061375;28;20091;-90
2021/11/30 00:51:08;;;;;;;14.50;10.00;;;4.00;99.90;;;;;;5075000;28;20109;-91
2021/11/30 00:53:34;;;;;;;12.30;9.00;;;4.00;99.90;;;;;;5041149;28;20047;-88
2021/11/30 00:56:02;;;;;;;12.75;9.40;;;4.00;99.90;;;;;;5057807;28;20024;-89
2021/11/30 00:58:27;;;;;;;11.63;8.70;;;4.00;99.90;;;;;;5057730;28;20044;-90
2021/11/30 01:00:54;;;;;;;13.80;9.35;;;4.00;99.90;;;;;;5075114;28;20078;-89
2021/11/30 01:03:20;;;;;;;12.85;7.70;;;4.00;99.90;;;;;;5057409;28;20078;-92
2021/11/30 01:05:46;;;;;;;12.50;8.98;;;4.00;99.90;;;;;;5058030;28;20024;-90
2021/11/30 01:08:13;;;;;;;10.45;8.00;;;4.00;99.90;;;;;;5038096;28;20040;-90
2021/11/30 01:10:40;;;;;;;10.93;8.45;;;4.00;99.90;;;;;;5055372;28;20024;-90
2021/11/30 01:13:05;;;;;;;11.00;7.97;;;4.00;99.90;;;;;;5037345;28;20025;-90
2021/11/30 01:15:32;;;;;;;10.93;7.47;;;4.00;99.90;;;;;;5037107;28;20029;-91
2021/11/30 01:17:58;;;;;;;9.23;7.55;;;4.00;99.90;;;;;;5037125;28;20075;-89
2021/11/30 01:20:25;;;;;;;9.50;6.93;;;4.00;99.90;;;;;;5037273;28;20029;-90
2021/11/30 01:22:53;;;;;;;11.88;7.25;;;4.00;99.90;;;;;;5037300;28;20033;-90
2021/11/30 01:25:19;;;;;;;12.48;7.28;;;4.00;99.90;;;;;;5037513;28;20104;-88
2021/11/30 01:27:47;;;;;;;9.98;6.85;;;4.10;99.90;;;;;;5044842;28;20024;-88
2021/11/30 01:30:14;;;;;;;8.77;6.85;;;4.10;99.90;;;;;;5057169;28;20111;-88
2021/11/30 01:32:42;;;;;;;9.82;6.93;;;4.10;99.90;;;;;;5055023;28;20028;-87
2021/11/30 01:35:08;;;;;;;9.15;6.68;;;4.10;99.90;;;;;;5057146;28;20116;-88
2021/11/30 01:37:34;;;;;;;8.52;6.45;;;4.10;99.90;;;;;;5056222;28;20078;-89
2021/11/30 01:40:00;;;;;;;9.13;6.55;;;4.10;99.90;;;;;;5057579;28;20025;-88
2021/11/30 01:42:27;;;;;;;10.02;6.95;;;4.10;99.90;;;;;;5056365;28;20466;-89
2021/11/30 01:45:04;;;;;;;8.77;6.72;;;4.10;99.90;;;;;;5056648;28;20046;-90
2021/11/30 01:50:03;;;;;;;8.85;6.30;;;4.10;99.90;;;;;;5075339;28;20494;-90
2021/11/30 01:52:29;;;;;;;8.38;6.07;;;4.10;99.90;;;;;;5057003;28;20033;-89
2021/11/30 01:54:55;;;;;;;9.02;5.95;;;4.10;99.90;;;;;;5056123;28;20024;-89
2021/11/30 01:57:24;;;;;;;10.18;6.95;;;4.20;99.90;;;;;;5056270;28;20131;-87
2021/11/30 01:59:53;;;;;;;9.73;6.78;;;4.20;99.90;;;;;;5074686;28;20401;-89
2021/11/30 02:02:20;;;;;;;9.30;6.05;;;4.20;99.90;;;;;;5039783;28;20387;-89
2021/11/30 02:04:46;;;;;;;8.82;6.05;;;4.20;99.90;;;;;;5056651;28;20090;-90
2021/11/30 02:07:13;;;;;;;6.88;5.47;;;4.20;99.90;;;;;;5049234;28;20044;-90
2021/11/30 02:09:41;;;;;;;7.85;5.78;;;4.20;99.90;;;;;;5036706;28;20021;-90
2021/11/30 02:12:08;;;;;;;8.27;5.57;;;4.30;99.90;;;;;;5037262;28;20545;-90
2021/11/30 02:14:38;;;;;;;8.18;5.65;;;4.20;99.90;;;;;;5036575;28;20071;-90
2021/11/30 02:17:07;;;;;;;6.45;4.82;;;4.20;99.90;;;;;;5036927;28;20116;-89
2021/11/30 02:19:42;;;;;;;6.13;5.03;;;4.20;99.90;;;;;;5036894;28;20028;-89
2021/11/30 02:22:13;;;;;;;7.47;5.03;;;4.30;99.90;;;;;;5054343;28;20029;-90
2021/11/30 02:24:40;;;;;;;6.18;4.85;;;4.30;99.90;;;;;;5036606;28;20033;-92
2021/11/30 02:27:06;;;;;;;6.80;4.97;;;4.30;99.90;;;;;;5043479;28;20478;-89
2021/11/30 02:29:31;;;;;;;9.32;5.15;;;4.30;99.90;;;;;;5056633;28;20131;-90
2021/11/30 02:31:57;;;;;;;6.57;4.90;;;4.30;99.90;;;;;;5056794;28;20032;-89
2021/11/30 02:34:23;;;;;;;6.95;4.78;;;4.30;99.90;;;;;;5057107;28;20020;-91
2021/11/30 02:36:52;;;;;;;5.45;4.47;;;4.30;99.90;;;;;;5073636;28;20580;-93
2021/11/30 02:39:24;;;;;;;7.53;5.13;;;4.30;99.90;;;;;;5039975;28;20557;-90
2021/11/30 02:41:52;;;;;;;6.28;4.85;;;4.30;99.60;;;;;;5056250;28;20494;-89
2021/11/30 02:44:19;;;;;;;9.98;5.45;;;4.30;99.70;;;;;;5055837;28;20025;-91
2021/11/30 02:46:54;;;;;;;6.55;5.00;;;4.30;99.90;;;;;;5039177;28;20056;-91
2021/11/30 02:49:26;;;;;;;6.72;4.57;;;4.30;99.70;;;;;;5039512;28;20031;-89
2021/11/30 02:52:01;;;;;;;10.30;5.53;;;4.30;99.70;;;;;;5042811;28;20087;-89
2021/11/30 02:54:27;;;;;;;7.55;5.20;;;4.30;99.80;;;;;;5037859;28;20026;-90
2021/11/30 02:56:59;;;;;;;8.05;5.68;;;4.30;99.90;;;;;;5054158;28;20471;-90
2021/11/30 02:59:29;;;;;;;8.38;5.57;;;4.30;99.70;;;;;;5039559;28;20490;-91
2021/11/30 03:01:58;;;;;;;7.75;4.80;;;4.30;99.60;;;;;;5053552;28;20036;-93
2021/11/30 03:04:26;;;;;;;6.13;4.63;;;4.30;99.50;;;;;;5053721;28;20052;-94
2021/11/30 03:06:54;;;;;;;6.90;5.30;;;4.30;99.50;;;;;;5052752;28;20052;-89
2021/11/30 03:09:20;;;;;;;6.68;5.15;;;4.30;99.90;;;;;;5056236;28;20021;-90
2021/11/30 03:11:47;;;;;;;8.85;5.60;;;4.30;99.90;;;;;;5056461;28;20033;-90
2021/11/30 03:14:13;;;;;;;10.15;5.63;;;4.30;99.70;;;;;;5056507;28;20021;-91
2021/11/30 03:16:39;;;;;;;7.63;5.10;;;4.30;99.90;;;;;;5058611;28;20032;-91
2021/11/30 03:19:07;;;;;;;7.97;5.53;;;4.30;99.90;;;;;;5057115;28;20378;-90
2021/11/30 03:21:33;;;;;;;7.75;5.60;;;4.30;99.90;;;;;;5058573;28;20036;-90
2021/11/30 03:23:59;;;;;;;9.68;5.68;;;4.30;99.90;;;;;;5075261;28;20497;-91
2021/11/30 03:26:26;;;;;;;9.32;5.53;;;4.30;99.90;;;;;;5056633;28;20538;-91
2021/11/30 03:28:52;;;;;;;7.50;5.00;;;4.30;99.90;;;;;;5056963;28;20057;-91
2021/11/30 03:31:46;;;;;;;7.90;5.05;;;4.30;99.90;;;;;;5056316;28;20037;-90
2021/11/30 03:34:19;;;;;;;7.57;5.55;;;4.30;99.90;;;;;;5055995;28;20066;-91
2021/11/30 03:36:48;;;;;;;6.93;5.13;;;4.30;99.80;;;;;;5056259;28;20112;-91
2021/11/30 03:39:26;;;;;;;9.20;5.65;;;4.30;99.90;;;;;;5057493;28;20658;-91
2021/11/30 03:41:55;;;;;;;7.32;5.28;;;4.30;99.90;;;;;;5051287;28;20048;-89
2021/11/30 03:44:21;;;;;;;7.03;5.25;;;4.30;99.00;;;;;;5042282;28;20102;-90
2021/11/30 03:46:48;;;;;;;7.60;5.75;;;4.30;99.10;;;;;;5068323;28;20047;-88
2021/11/30 03:49:15;;;;;;;9.05;6.30;;;4.30;99.30;;;;;;5066746;28;20028;-89
2021/11/30 03:51:41;;;;;;;10.90;6.85;;;4.30;99.70;;;;;;5059936;28;20021;-90
2021/11/30 03:54:07;;;;;;;7.82;5.80;;;4.30;99.90;;;;;;5022169;28;20028;-90
2021/11/30 03:56:37;;;;;;;8.10;5.53;;;4.30;99.70;;;;;;5054976;28;20386;-91
2021/11/30 03:59:04;;;;;;;8.18;6.05;;;4.30;99.40;;;;;;5057315;28;20471;-90
2021/11/30 04:01:30;;;;;;;12.70;6.95;;;4.30;99.60;;;;;;5075381;28;20029;-92
2021/11/30 04:03:56;;;;;;;8.70;5.70;;;4.40;99.70;;;;;;5075054;28;20073;-91
2021/11/30 04:06:23;;;;;;;11.50;6.47;;;4.30;99.90;;;;;;5075201;28;20059;-91
2021/11/30 04:08:50;;;;;;;10.95;6.32;;;4.30;99.90;;;;;;5074827;28;20020;-91
2021/11/30 04:11:17;;;;;;;11.27;6.35;;;4.30;99.90;;;;;;5069656;28;20021;-91
2021/11/30 04:13:45;;;;;;;9.38;6.30;;;4.30;99.90;;;;;;5055182;28;20029;-91
2021/11/30 04:16:11;;;;;;;8.45;5.85;;;4.30;99.70;;;;;;5055004;28;20035;-89
2021/11/30 04:18:38;;;;;;;7.95;5.68;;;4.30;99.70;;;;;;5076798;28;20032;-92
2021/11/30 04:21:05;;;;;;;8.20;6.07;;;4.30;99.90;;;;;;5075606;28;20132;-92
2021/11/30 04:23:31;;;;;;;9.82;6.53;;;4.30;99.50;;;;;;5058609;28;20029;-89
2021/11/30 04:25:56;;;;;;;9.73;6.75;;;4.30;99.50;;;;;;5054261;28;20040;-88
2021/11/30 04:28:22;;;;;;;8.48;6.35;;;4.30;99.80;;;;;;5054587;28;20021;-88
2021/11/30 04:30:50;;;;;;;8.82;6.10;;;4.30;99.50;;;;;;5056259;28;20399;-89
2021/11/30 04:33:15;;;;;;;10.00;7.03;;;4.30;99.90;;;;;;5074545;28;20020;-88
2021/11/30 04:35:41;;;;;;;8.43;6.40;;;4.30;99.50;;;;;;5074881;28;20035;-90
2021/11/30 04:38:07;;;;;;;10.35;6.97;;;4.30;99.00;;;;;;5057865;28;20478;-91
2021/11/30 04:40:33;;;;;;;8.80;6.22;;;4.30;99.40;;;;;;5074311;28;20036;-91
2021/11/30 04:43:01;;;;;;;10.88;6.95;;;4.30;99.50;;;;;;5076637;28;20017;-92
2021/11/30 04:45:32;;;;;;;12.50;7.93;;;4.30;99.60;;;;;;5074995;28;20103;-93
2021/11/30 04:47:58;;;;;;;11.15;8.00;;;4.30;99.00;;;;;;5075174;28;20059;-93
2021/11/30 04:50:28;;;;;;;9.45;7.20;;;4.30;99.30;;;;;;5074887;28;20029;-92
2021/11/30 04:52:57;;;;;;;9.93;6.90;;;4.30;99.00;;;;;;5074940;28;20028;-94
2021/11/30 04:55:26;;;;;;;11.20;6.85;;;4.20;99.40;;;;;;5077265;28;20029;-93
2021/11/30 04:57:58;;;;;;;8.82;6.15;;;4.20;99.10;;;;;;5075955;28;20024;-95
2021/11/30 05:00:27;;;;;;;10.23;6.20;;;4.20;98.90;;;;;;5079418;28;20040;-92
2021/11/30 05:02:53;;;;;;;7.55;5.85;;;4.20;98.40;;;;;;5063153;28;20088;-91
2021/11/30 05:05:20;;;;;;;10.15;6.50;;;4.10;98.80;;;;;;5076255;28;20028;-90
2021/11/30 05:07:47;;;;;;;13.02;6.68;;;4.10;98.90;;;;;;5062759;28;20029;-91
2021/11/30 05:10:13;;;;;;;10.88;6.75;;;4.00;98.50;;;;;;5053843;28;20033;-92
2021/11/30 05:12:41;;;;;;;8.55;6.05;;;3.90;99.20;;;;;;5061216;28;20572;-92
2021/11/30 05:15:09;;;;;;;8.80;6.18;;;3.90;99.20;;;;;;5077440;28;20033;-93
2021/11/30 05:17:37;;;;;;;10.35;7.05;;;3.90;99.40;;;;;;5054633;28;20029;-93
2021/11/30 05:20:04;;;;;;;8.55;6.38;;;3.90;99.20;;;;;;5056018;28;20036;-93
2021/11/30 05:22:31;;;;;;;8.85;6.15;;;3.80;99.00;;;;;;5040831;28;20040;-90
2021/11/30 05:24:57;;;;;;;8.10;5.90;;;3.80;98.80;;;;;;5056936;28;20383;-95
2021/11/30 05:27:22;;;;;;;8.30;5.07;;;3.90;98.80;;;;;;5057676;28;20108;-95
2021/11/30 05:29:48;;;;;;;8.90;6.05;;;3.90;98.40;;;;;;5057373;28;20029;-94
2021/11/30 05:32:15;;;;;;;10.60;6.00;;;3.80;98.60;;;;;;5040195;28;20441;-92
2021/11/30 16:07:55;;;;;;;17.30;9.95;;;2.80;94.10;;;;;;5092285;28;20386;-90
2021/11/30 16:10:21;;;;;;;19.23;11.45;;;2.80;94.60;;;;;;5090798;28;20082;-91
2021/11/30 16:12:47;;;;;;;15.30;10.15;;;2.70;94.70;;;;;;5090990;28;20123;-91
2021/11/30 16:15:13;;;;;;;16.08;9.77;;;2.70;94.50;;;;;;5090688;28;20118;-92
2021/11/30 16:17:40;;;;;;;18.88;11.73;;;2.70;94.90;;;;;;5090840;28;20024;-91
2021/11/30 16:20:06;;;;;;;19.55;12.10;;;2.60;95.30;;;;;;5090713;28;20020;-91
2021/11/30 16:22:32;;;;;;;13.88;7.90;;;2.60;94.90;;;;;;5090524;28;20028;-91
2021/11/30 16:24:58;;;;;;;24.45;13.93;;;2.60;95.00;;;;;;5090705;28;20065;-91
2021/11/30 16:27:24;;;;;;;35.28;18.40;;;2.60;95.60;;;;;;5090525;28;20465;-91
2021/11/30 16:29:51;;;;;;;34.78;20.38;;;2.60;95.30;;;;;;5090728;28;20029;-90
2021/11/30 16:32:17;;;;;;;27.55;17.33;;;2.60;95.70;;;;;;5090703;28;20056;-91
2021/11/30 16:34:44;;;;;;;11.90;7.43;;;2.60;95.60;;;;;;5083172;28;20044;-90
2021/11/30 16:37:10;;;;;;;21.90;14.43;;;2.70;95.50;;;;;;5069918;28;20073;-91
2021/11/30 16:39:36;;;;;;;15.88;9.25;;;2.70;95.90;;;;;;5070230;28;20021;-93
2021/11/30 16:42:02;;;;;;;27.55;16.33;;;2.70;95.70;;;;;;5070145;28;20027;-90
2021/11/30 16:44:28;;;;;;;20.27;12.60;;;2.60;96.10;;;;;;5071106;28;20075;-91
2021/11/30 16:46:54;;;;;;;23.15;13.55;;;2.60;96.30;;;;;;5082295;28;20024;-91
2021/11/30 16:49:21;;;;;;;20.23;12.05;;;2.60;96.40;;;;;;5091892;28;20040;-94
2021/11/30 16:51:48;;;;;;;17.40;10.90;;;2.60;96.70;;;;;;5091182;28;20073;-91
2021/11/30 16:54:14;;;;;;;18.08;12.43;;;2.60;96.60;;;;;;5091149;28;20029;-92
2021/11/30 16:56:43;;;;;;;11.65;7.65;;;2.60;96.80;;;;;;5090447;28;20059;-92
2021/11/30 16:59:10;;;;;;;17.63;12.13;;;2.60;96.70;;;;;;5090190;28;20028;-91
2021/11/30 17:01:36;;;;;;;20.77;12.77;;;2.60;97.10;;;;;;5083984;28;20035;-89
2021/11/30 17:04:01;;;;;;;14.68;9.77;;;2.60;97.30;;;;;;5091028;28;20024;-91
2021/11/30 17:06:27;;;;;;;17.05;10.20;;;2.50;97.50;;;;;;5089800;28;20446;-90
2021/11/30 17:09:28;;;;;;;15.65;10.82;;;2.50;97.70;;;;;;5089683;28;20020;-89
2021/11/30 17:11:59;;;;;;;19.80;9.70;;;2.40;98.00;;;;;;5087470;28;20020;-89
2021/11/30 17:14:26;;;;;;;18.02;10.38;;;2.40;98.10;;;;;;5082597;28;20025;-91
2021/11/30 17:16:53;;;;;;;24.33;14.10;;;2.40;98.20;;;;;;5090549;28;20498;-90
2021/11/30 17:19:19;;;;;;;19.00;11.93;;;2.40;98.40;;;;;;5069150;28;20032;-90
2021/11/30 17:21:48;;;;;;;17.42;10.48;;;2.30;98.50;;;;;;5055755;28;20537;-90
2021/11/30 17:24:18;;;;;;;26.45;11.35;;;2.30;98.80;;;;;;5059465;28;20024;-89
2021/11/30 17:26:46;;;;;;;28.58;16.15;;;2.20;98.80;;;;;;5035442;28;20061;-90
2021/11/30 17:29:13;;;;;;;41.85;23.33;;;2.30;99.10;;;;;;5035508;28;20033;-89
2021/11/30 17:31:40;;;;;;;22.73;12.68;;;2.20;99.50;;;;;;5044915;28;20052;-90
2021/11/30 17:34:05;;;;;;;23.40;12.25;;;2.10;99.70;;;;;;5061687;28;20021;-89
2021/11/30 17:36:31;;;;;;;17.58;10.90;;;2.20;99.90;;;;;;5055256;28;20034;-89
2021/11/30 17:38:57;;;;;;;15.93;10.52;;;2.10;99.90;;;;;;5055215;28;20044;-88
2021/11/30 17:41:26;;;;;;;17.42;11.27;;;2.00;99.90;;;;;;5056177;28;20033;-88
2021/11/30 17:43:53;;;;;;;16.38;9.77;;;2.00;99.90;;;;;;5054973;28;20115;-89
2021/11/30 17:46:19;;;;;;;32.40;19.83;;;1.90;99.90;;;;;;5054830;28;20454;-88
2021/11/30 17:48:45;;;;;;;27.95;17.48;;;1.90;99.90;;;;;;5054990;28;20418;-88
2021/11/30 17:51:11;;;;;;;25.95;16.27;;;2.00;99.90;;;;;;5057628;28;20066;-88
2021/11/30 17:53:38;;;;;;;24.23;17.67;;;1.90;99.90;;;;;;5064942;28;20021;-88
2021/11/30 17:56:05;;;;;;;23.38;14.75;;;2.00;99.90;;;;;;5056031;28;20033;-89
2021/11/30 17:58:31;;;;;;;26.63;16.73;;;2.00;99.90;;;;;;5054848;28;20025;-89
2021/11/30 18:00:58;;;;;;;15.27;9.38;;;2.10;99.90;;;;;;5055754;28;20029;-89
2021/11/30 18:03:25;;;;;;;24.45;12.93;;;2.10;99.90;;;;;;5055891;28;20020;-89
2021/11/30 18:05:51;;;;;;;18.45;11.20;;;2.20;99.90;;;;;;5057321;28;20056;-89
2021/11/30 18:08:16;;;;;;;14.27;9.55;;;2.20;99.90;;;;;;5038526;28;20035;-89
2021/11/30 18:10:43;;;;;;;17.48;10.40;;;2.10;99.90;;;;;;5037932;28;20025;-89
2021/11/30 18:13:11;;;;;;;19.00;10.75;;;2.10;99.90;;;;;;5038075;28;20470;-89
2021/11/30 18:15:40;;;;;;;19.17;10.75;;;2.10;99.90;;;;;;5037907;28;20437;-89
2021/11/30 18:18:07;;;;;;;17.25;9.85;;;2.10;99.90;;;;;;5037932;28;20374;-89
2021/11/30 18:20:34;;;;;;;15.60;9.55;;;2.00;99.90;;;;;;5037787;28;20135;-88
2021/11/30 18:22:59;;;;;;;11.63;8.32;;;2.00;99.90;;;;;;5037540;28;20175;-88
2021/11/30 18:25:26;;;;;;;16.05;10.60;;;2.00;99.90;;;;;;5055438;28;20507;-88
2021/11/30 18:27:52;;;;;;;27.80;14.15;;;1.90;99.90;;;;;;5037326;28;20143;-88
2021/11/30 18:30:17;;;;;;;74.40;36.25;;;1.90;99.90;;;;;;5036639;28;20061;-89
2021/11/30 18:32:43;;;;;;;29.73;18.02;;;1.90;99.90;;;;;;5037381;28;20103;-88
2021/11/30 18:35:09;;;;;;;27.10;16.10;;;1.90;99.90;;;;;;5037434;28;20021;-88
2021/11/30 18:37:35;;;;;;;31.23;18.83;;;1.80;99.90;;;;;;5037414;28;20032;-88
2021/11/30 18:40:03;;;;;;;31.55;17.70;;;1.80;99.90;;;;;;5037377;28;20111;-89
2021/11/30 18:42:28;;;;;;;23.95;13.77;;;1.80;99.90;;;;;;5037261;28;20125;-88
2021/11/30 18:44:54;;;;;;;23.08;13.60;;;1.80;99.90;;;;;;5037165;28;20113;-89
2021/11/30 18:47:20;;;;;;;40.95;22.17;;;1.80;99.90;;;;;;5037306;28;20047;-89
2021/11/30 18:49:46;;;;;;;34.60;16.50;;;1.80;99.90;;;;;;5037354;28;20035;-89
2021/11/30 18:52:11;;;;;;;32.70;17.52;;;1.80;99.90;;;;;;5037445;28;20120;-90
2021/11/30 18:54:39;;;;;;;41.63;22.95;;;1.80;99.90;;;;;;5037343;28;20029;-89
2021/11/30 18:57:05;;;;;;;28.83;16.70;;;1.80;99.90;;;;;;5048200;28;20025;-90
2021/11/30 18:59:31;;;;;;;46.92;21.98;;;1.80;99.90;;;;;;5051190;28;20073;-90
2021/11/30 19:01:57;;;;;;;38.75;18.60;;;1.90;99.90;;;;;;5054331;28;20407;-89
2021/11/30 19:04:24;;;;;;;27.95;15.07;;;1.80;99.90;;;;;;5044925;28;20530;-90
2021/11/30 19:06:50;;;;;;;30.20;14.57;;;1.70;99.90;;;;;;5064506;28;20076;-90
2021/11/30 19:09:18;;;;;;;24.60;13.43;;;1.60;99.90;;;;;;5075140;28;20386;-92
2021/11/30 19:11:45;;;;;;;26.15;13.77;;;1.60;99.90;;;;;;5073890;28;20028;-90
2021/11/30 19:14:10;;;;;;;27.27;14.88;;;1.60;99.90;;;;;;5073546;28;20024;-90
2021/11/30 19:16:36;;;;;;;26.85;15.20;;;1.60;99.90;;;;;;5068103;28;20043;-90
2021/11/30 19:19:03;;;;;;;29.08;14.52;;;1.60;99.90;;;;;;5053611;28;20115;-90
2021/11/30 19:21:29;;;;;;;30.60;16.50;;;1.60;99.90;;;;;;5054804;28;20479;-90
2021/11/30 19:23:54;;;;;;;43.53;18.85;;;1.60;99.90;;;;;;5053481;28;20040;-90
2021/11/30 19:26:21;;;;;;;39.90;19.00;;;1.60;99.90;;;;;;5053369;28;20472;-89
2021/11/30 19:28:47;;;;;;;39.38;19.13;;;1.70;99.90;;;;;;5071356;28;20462;-90
2021/11/30 19:31:13;;;;;;;42.13;20.25;;;1.80;99.90;;;;;;5055258;28;20116;-90
2021/11/30 19:33:41;;;;;;;34.25;16.02;;;1.90;99.90;;;;;;5053384;28;20052;-90
2021/11/30 19:36:08;;;;;;;31.50;16.67;;;1.90;99.90;;;;;;5053308;28;20052;-90
2021/11/30 19:38:35;;;;;;;27.52;15.00;;;1.90;99.90;;;;;;5053363;28;20099;-90
2021/11/30 19:41:03;;;;;;;33.33;17.73;;;1.90;99.90;;;;;;5053099;28;20467;-89
2021/11/30 19:43:33;;;;;;;36.17;17.98;;;1.90;99.90;;;;;;5052449;28;20119;-89
2021/11/30 19:46:01;;;;;;;45.90;24.90;;;2.00;99.90;;;;;;5053242;28;20495;-90
2021/11/30 19:48:28;;;;;;;32.45;19.45;;;2.00;99.90;;;;;;5053311;28;20029;-90
2021/11/30 19:50:55;;;;;;;29.48;15.60;;;2.00;99.90;;;;;;5053169;28;20021;-90
2021/11/30 19:53:21;;;;;;;27.25;15.70;;;2.00;99.90;;;;;;5053144;28;20526;-90
2021/11/30 19:55:47;;;;;;;24.65;14.80;;;2.00;99.90;;;;;;5053391;28;20098;-90
2021/11/30 19:58:13;;;;;;;29.70;16.08;;;1.90;99.90;;;;;;5052972;28;20391;-89
2021/11/30 20:05:50;;;;;;;20.00;11.38;;;1.90;99.90;;;;;;5054497;28;20036;-90
2021/11/30 20:08:18;;;;;;;19.67;10.52;;;1.80;99.90;;;;;;5036184;28;20017;-90
2021/11/30 20:10:46;;;;;;;18.08;11.02;;;1.80;99.90;;;;;;5036300;28;20028;-90
2021/11/30 20:13:13;;;;;;;22.65;11.70;;;1.80;99.90;;;;;;5036319;28;20025;-89
2021/11/30 20:15:41;;;;;;;16.65;10.50;;;1.70;99.90;;;;;;5036125;28;20028;-89
2021/11/30 20:18:09;;;;;;;23.38;12.45;;;1.70;99.90;;;;;;5036066;28;20021;-89
2021/11/30 20:20:38;;;;;;;18.88;11.85;;;1.60;99.90;;;;;;5053856;28;20036;-89
2021/11/30 20:23:08;;;;;;;21.73;11.63;;;1.50;99.90;;;;;;5036094;28;20056;-89
2021/11/30 20:25:34;;;;;;;25.00;12.10;;;1.50;99.90;;;;;;5035894;28;20051;-89
2021/11/30 20:28:02;;;;;;;23.98;11.77;;;1.50;99.90;;;;;;5036086;28;20033;-89
2021/11/30 20:30:29;;;;;;;26.98;12.30;;;1.50;99.90;;;;;;5036337;28;20086;-90
2021/11/30 20:32:55;;;;;;;26.52;13.70;;;1.40;99.90;;;;;;5045962;28;20115;-89
2021/11/30 20:40:38;;;;;;;29.25;15.70;;;1.40;99.90;;;;;;5053749;28;20545;-90
2021/11/30 20:43:06;;;;;;;30.23;15.85;;;1.40;99.90;;;;;;5035982;28;20033;-89
2021/11/30 20:45:32;;;;;;;28.23;15.35;;;1.30;99.90;;;;;;5056093;28;20368;-89
2021/11/30 20:47:58;;;;;;;39.70;19.10;;;1.30;99.90;;;;;;5037157;28;20033;-89
2021/11/30 20:50:24;;;;;;;45.83;20.75;;;1.30;99.90;;;;;;5053476;28;20091;-88
2021/11/30 20:52:50;;;;;;;44.92;22.05;;;1.30;99.90;;;;;;5036322;28;20426;-88
2021/11/30 20:55:16;;;;;;;50.17;24.00;;;1.20;99.90;;;;;;5039440;28;20025;-88
2021/11/30 20:57:42;;;;;;;58.40;25.80;;;1.20;99.90;;;;;;5043904;28;20028;-89
2021/11/30 21:00:11;;;;;;;48.63;24.33;;;1.10;99.90;;;;;;5059513;28;20082;-89
2021/11/30 21:02:39;;;;;;;51.33;23.90;;;1.10;99.90;;;;;;5058577;28;20052;-89
2021/11/30 21:05:08;;;;;;;36.03;16.85;;;1.10;99.90;;;;;;5059255;28;20395;-89
2021/11/30 21:07:38;;;;;;;35.08;15.32;;;1.10;99.90;;;;;;5064121;28;20041;-89
2021/11/30 21:10:08;;;;;;;35.85;15.80;;;1.00;99.90;;;;;;5056721;28;20025;-88
2021/11/30 21:12:35;;;;;;;32.35;13.85;;;1.10;99.90;;;;;;5071990;28;20013;-89
2021/11/30 21:15:03;;;;;;;32.97;15.90;;;1.00;99.90;;;;;;5038925;28;20028;-88
2021/11/30 21:17:30;;;;;;;26.40;12.80;;;1.00;99.90;;;;;;5048979;28;20139;-88
2021/11/30 21:19:57;;;;;;;31.88;14.27;;;1.00;99.90;;;;;;5038878;28;20029;-89
2021/11/30 21:22:22;;;;;;;37.30;16.65;;;1.00;99.90;;;;;;5038922;28;20036;-89
2021/11/30 21:24:48;;;;;;;31.55;15.38;;;1.00;99.90;;;;;;5038796;28;20033;-88
2021/11/30 21:27:16;;;;;;;29.73;14.82;;;0.90;99.90;;;;;;5038738;28;20033;-88
2021/11/30 21:29:43;;;;;;;29.83;12.88;;;0.90;99.90;;;;;;5038495;28;20052;-88
2021/11/30 21:32:09;;;;;;;25.10;13.10;;;0.90;99.90;;;;;;5038680;28;20025;-88
2021/11/30 21:34:39;;;;;;;26.58;13.50;;;0.90;99.90;;;;;;5056387;28;20459;-88
2021/11/30 21:37:07;;;;;;;30.02;15.93;;;0.80;99.90;;;;;;5048870;28;20751;-88
2021/11/30 21:39:35;;;;;;;42.80;23.13;;;0.80;99.90;;;;;;5055493;28;20070;-88
2021/11/30 21:42:02;;;;;;;28.05;13.32;;;0.80;99.90;;;;;;5056605;28;20029;-88
2021/11/30 21:44:30;;;;;;;28.60;14.48;;;0.80;99.90;;;;;;5038430;28;20025;-88
2021/11/30 21:46:56;;;;;;;27.88;14.88;;;0.70;99.90;;;;;;5042481;28;20024;-88
2021/11/30 21:49:22;;;;;;;32.72;16.25;;;0.70;99.90;;;;;;5046244;28;20115;-88
2021/11/30 21:51:49;;;;;;;31.25;17.80;;;0.70;99.90;;;;;;5039066;28;20021;-89
2021/11/30 21:54:16;;;;;;;78.53;39.35;;;0.70;99.90;;;;;;5038731;28;20052;-89
2021/11/30 21:56:45;;;;;;;38.63;21.30;;;0.70;99.90;;;;;;5041880;28;20035;-88
2021/11/30 21:59:11;;;;;;;29.30;15.75;;;0.60;99.90;;;;;;5054955;28;20047;-89
2021/11/30 22:01:37;;;;;;;44.25;22.52;;;0.60;99.90;;;;;;5052624;28;20037;-89
2021/11/30 22:04:03;;;;;;;34.83;17.30;;;0.60;99.90;;;;;;5040872;28;20099;-88
2021/11/30 22:06:30;;;;;;;40.20;19.92;;;0.60;99.90;;;;;;5040671;28;20053;-89
2021/11/30 22:08:57;;;;;;;27.85;14.15;;;0.50;99.90;;;;;;5054866;28;20498;-89
2021/11/30 22:11:24;;;;;;;32.03;14.60;;;0.60;99.90;;;;;;5054754;28;20028;-89
2021/11/30 22:13:49;;;;;;;36.00;15.13;;;0.60;99.90;;;;;;5055824;28;20017;-89
2021/11/30 22:16:15;;;;;;;30.02;13.82;;;0.60;99.90;;;;;;5060474;28;20028;-89
2021/11/30 22:18:41;;;;;;;25.27;13.25;;;0.60;99.90;;;;;;5074564;28;20024;-89
2021/11/30 22:21:07;;;;;;;24.05;13.40;;;0.60;99.90;;;;;;5074468;28;20074;-88
2021/11/30 22:23:32;;;;;;;22.45;11.13;;;0.60;99.90;;;;;;5074501;28;20028;-88
2021/11/30 22:25:59;;;;;;;24.25;12.98;;;0.60;99.90;;;;;;5074412;28;20394;-88
2021/11/30 22:28:26;;;;;;;23.30;13.18;;;0.60;99.90;;;;;;5074571;28;20024;-89
2021/11/30 22:30:52;;;;;;;22.92;12.05;;;0.60;99.90;;;;;;5073713;28;20055;-89
2021/11/30 22:33:18;;;;;;;23.45;12.75;;;0.60;99.90;;;;;;5055410;28;20085;-89
2021/11/30 22:35:44;;;;;;;28.13;13.75;;;0.50;99.90;;;;;;5054237;28;20056;-89
2021/11/30 22:38:10;;;;;;;25.08;14.45;;;0.50;99.90;;;;;;5054463;28;20021;-90
2021/11/30 22:40:37;;;;;;;21.88;13.25;;;0.50;99.90;;;;;;5055253;28;20459;-90
2021/11/30 22:43:04;;;;;;;24.70;13.02;;;0.40;99.90;;;;;;5054718;28;20078;-90
2021/11/30 22:45:29;;;;;;;19.65;11.90;;;0.40;99.90;;;;;;5054053;28;20093;-90
2021/11/30 22:47:56;;;;;;;17.00;9.95;;;0.30;99.90;;;;;;5055113;28;20171;-89
2021/11/30 22:50:22;;;;;;;20.33;10.55;;;0.40;99.90;;;;;;5054172;28;20071;-89
2021/11/30 22:52:50;;;;;;;16.98;9.05;;;0.40;99.90;;;;;;5054213;28;20025;-90
2021/11/30 22:55:17;;;;;;;16.17;9.07;;;0.40;99.90;;;;;;5053877;28;20494;-89
2021/11/30 22:57:42;;;;;;;17.23;8.95;;;0.40;99.90;;;;;;5053867;28;20072;-88
2021/11/30 23:00:17;;;;;;;15.57;9.20;;;0.50;99.90;;;;;;5053682;28;20048;-89
2021/11/30 23:02:43;;;;;;;16.23;9.63;;;0.50;99.90;;;;;;5067784;28;20028;-89
2021/11/30 23:05:10;;;;;;;18.95;10.38;;;0.40;99.90;;;;;;5074651;28;20036;-88
2021/11/30 23:07:37;;;;;;;16.90;8.98;;;0.40;99.90;;;;;;5074709;28;20083;-89
2021/11/30 23:10:05;;;;;;;18.33;10.23;;;0.50;99.90;;;;;;5056629;28;20074;-89
2021/11/30 23:12:30;;;;;;;17.88;9.18;;;0.40;99.90;;;;;;5057005;28;20031;-89
2021/11/30 23:14:56;;;;;;;16.80;9.98;;;0.40;99.90;;;;;;5056672;28;20020;-88
2021/11/30 23:17:24;;;;;;;16.95;9.50;;;0.40;99.90;;;;;;5052156;28;20048;-89
2021/11/30 23:19:50;;;;;;;17.00;10.07;;;0.40;99.90;;;;;;5056963;28;20024;-89
2021/11/30 23:22:17;;;;;;;17.02;9.05;;;0.40;99.90;;;;;;5074352;28;20020;-88
2021/11/30 23:24:52;;;;;;;16.17;9.10;;;0.40;99.90;;;;;;5072483;28;20029;-89
2021/11/30 23:27:19;;;;;;;17.10;10.05;;;0.40;99.90;;;;;;5056439;28;20043;-89
2021/11/30 23:29:46;;;;;;;15.30;9.52;;;0.40;99.90;;;;;;5056820;28;20021;-89